Time;durP1;ratioP1;P1;durP2;ratioP2;P2;SDS_P1;SDS_P2;PMS_P1;PMS_P2;Temp;Humidity;BMP_temperature;BMP_pressure;BME280_temperature;BME280_humidity;BME280_pressure;Samples;Min_cycle;Max_cycle;Signal;HPM_P1;HPM_P2
2021/10/28 00:12:57;;;;;;;2.30;0.68;;;;;;;;;;4996154;28;20092;-87
2021/10/28 00:15:36;;;;;;;0.00;0.00;;;;;;;;;;4978473;28;20069;-87
2021/10/28 00:20:26;;;;;;;1.77;0.52;;;;;;;;;;4996184;28;20049;-87
2021/10/28 00:22:52;;;;;;;0.43;0.35;;;;;;;;;;4993036;28;20479;-86
2021/10/28 00:25:17;;;;;;;0.00;0.00;;;;;;;;;;4996248;28;20470;-87
2021/10/28 00:27:42;;;;;;;3.83;1.45;;;;;;;;;;4996008;28;20467;-87
2021/10/28 00:30:08;;;;;;;0.47;0.47;;;;;;;;;;4995876;28;20109;-87
2021/10/28 00:32:33;;;;;;;0.13;0.10;;;;;;;;;;4983846;28;20363;-87
2021/10/28 00:34:58;;;;;;;0.10;0.10;;;;;;;;;;4995169;28;20053;-87
2021/10/28 00:37:24;;;;;;;0.15;0.15;;;;;;;;;;4996262;28;20117;-87
2021/10/28 00:39:49;;;;;;;0.00;0.00;;;;;;;;;;4992143;28;20026;-87
2021/10/28 00:42:15;;;;;;;0.00;0.00;;;;;;;;;;4978533;28;20038;-86
2021/10/28 00:44:40;;;;;;;0.10;0.10;;;;;;;;;;4995690;28;20089;-87
2021/10/28 00:47:06;;;;;;;2.33;1.15;;;;;;;;;;4995852;28;20748;-87
2021/10/28 00:49:32;;;;;;;0.10;0.10;;;;;;;;;;4995996;28;20034;-87
2021/10/28 00:51:57;;;;;;;0.65;0.65;;;;;;;;;;4990663;28;20044;-87
2021/10/28 00:54:23;;;;;;;0.20;0.20;;;;;;;;;;4990681;28;20077;-87
2021/10/28 00:56:49;;;;;;;0.10;0.10;;;;;;;;;;4989712;28;20034;-87
2021/10/28 00:59:14;;;;;;;0.40;0.40;;;;;;;;;;4995541;28;20027;-87
2021/10/28 01:01:40;;;;;;;0.08;0.08;;;;;;;;;;4995438;28;20042;-87
2021/10/28 01:04:06;;;;;;;0.10;0.10;;;;;;;;;;4995409;28;20038;-87
2021/10/28 01:06:32;;;;;;;0.10;0.10;;;;;;;;;;4990620;28;20438;-87
2021/10/28 01:08:57;;;;;;;0.10;0.10;;;;;;;;;;4986081;28;20141;-88
2021/10/28 01:11:25;;;;;;;3.00;1.02;;;;;;;;;;4995068;28;20031;-87
2021/10/28 01:13:50;;;;;;;0.17;0.17;;;;;;;;;;4991608;28;20037;-87
2021/10/28 01:16:16;;;;;;;4.65;1.85;;;;;;;;;;4995226;28;20018;-87
2021/10/28 01:18:42;;;;;;;0.00;0.00;;;;;;;;;;4991697;28;20035;-87
2021/10/28 01:21:08;;;;;;;0.22;0.22;;;;;;;;;;4995029;28;20057;-87
2021/10/28 01:23:35;;;;;;;0.00;0.00;;;;;;;;;;4995044;28;20076;-87
2021/10/28 01:26:07;;;;;;;0.00;0.00;;;;;;;;;;4994985;28;20120;-87
2021/10/28 01:28:34;;;;;;;0.20;0.20;;;;;;;;;;4994663;28;20567;-86
2021/10/28 01:31:01;;;;;;;0.00;0.00;;;;;;;;;;4994988;28;20030;-87
2021/10/28 01:33:27;;;;;;;5.07;1.38;;;;;;;;;;4994840;28;20070;-87
2021/10/28 01:35:53;;;;;;;1.02;1.02;;;;;;;;;;4994498;28;20530;-86
2021/10/28 01:38:18;;;;;;;0.93;0.75;;;;;;;;;;4994876;28;20058;-86
2021/10/28 01:40:53;;;;;;;0.03;0.03;;;;;;;;;;4976708;28;20042;-86
2021/10/28 01:43:18;;;;;;;0.85;0.85;;;;;;;;;;4994695;28;20097;-86
2021/10/28 01:45:43;;;;;;;7.80;0.57;;;;;;;;;;4993848;28;20026;-86
2021/10/28 01:48:09;;;;;;;0.03;0.03;;;;;;;;;;4994556;28;20022;-87
2021/10/28 01:50:34;;;;;;;0.32;0.32;;;;;;;;;;4994521;28;20486;-86
2021/10/28 01:53:00;;;;;;;0.47;0.35;;;;;;;;;;4994200;28;20595;-86
2021/10/28 01:55:25;;;;;;;0.00;0.00;;;;;;;;;;4976905;28;20033;-86
2021/10/28 01:57:50;;;;;;;2.85;0.40;;;;;;;;;;4994393;28;20038;-86
2021/10/28 02:00:17;;;;;;;0.00;0.00;;;;;;;;;;4990734;28;20100;-86
2021/10/28 02:02:43;;;;;;;0.00;0.00;;;;;;;;;;4994013;28;20015;-86
2021/10/28 02:05:15;;;;;;;0.28;0.28;;;;;;;;;;4994281;28;20356;-87
2021/10/28 02:07:41;;;;;;;0.10;0.10;;;;;;;;;;4994358;28;20450;-87
2021/10/28 02:10:07;;;;;;;0.00;0.00;;;;;;;;;;4993904;28;20082;-87
2021/10/28 02:12:33;;;;;;;0.88;0.65;;;;;;;;;;4994294;28;20058;-87
2021/10/28 02:14:58;;;;;;;1.23;0.98;;;;;;;;;;4994180;28;20069;-87
2021/10/28 02:17:24;;;;;;;0.80;0.80;;;;;;;;;;4994543;28;20090;-87
2021/10/28 02:19:49;;;;;;;0.68;0.52;;;;;;;;;;4994108;28;20030;-87
2021/10/28 02:22:14;;;;;;;0.00;0.00;;;;;;;;;;4994148;28;20034;-86
2021/10/28 02:24:39;;;;;;;0.38;0.38;;;;;;;;;;4994413;28;20019;-87
2021/10/28 02:27:05;;;;;;;0.00;0.00;;;;;;;;;;4990653;28;20491;-87
2021/10/28 02:29:30;;;;;;;0.10;0.10;;;;;;;;;;4990734;28;20108;-87
2021/10/28 02:31:57;;;;;;;0.00;0.00;;;;;;;;;;4984115;28;20153;-87
2021/10/28 02:34:22;;;;;;;0.80;0.40;;;;;;;;;;4974586;28;20034;-87
2021/10/28 02:36:47;;;;;;;1.02;0.93;;;;;;;;;;4971246;28;20035;-87
2021/10/28 02:39:13;;;;;;;0.00;0.00;;;;;;;;;;4974912;28;20019;-87
2021/10/28 02:41:38;;;;;;;0.10;0.10;;;;;;;;;;4974435;28;20490;-87
2021/10/28 02:44:04;;;;;;;0.10;0.10;;;;;;;;;;4974554;28;20031;-87
2021/10/28 02:46:29;;;;;;;0.00;0.00;;;;;;;;;;4974446;28;20102;-87
2021/10/28 02:48:54;;;;;;;0.20;0.20;;;;;;;;;;4974451;28;20100;-87
2021/10/28 02:51:20;;;;;;;0.00;0.00;;;;;;;;;;4974221;28;20097;-87
2021/10/28 02:53:45;;;;;;;0.57;0.57;;;;;;;;;;4974682;28;20023;-87
2021/10/28 02:56:11;;;;;;;0.00;0.00;;;;;;;;;;4974439;28;20437;-87
2021/10/28 02:58:36;;;;;;;0.90;0.90;;;;;;;;;;4977361;28;20038;-87
2021/10/28 03:01:01;;;;;;;8.30;0.55;;;;;;;;;;4977809;28;20034;-86
2021/10/28 03:03:27;;;;;;;0.15;0.15;;;;;;;;;;4978137;28;20117;-86
2021/10/28 03:05:52;;;;;;;0.00;0.00;;;;;;;;;;4972157;28;20035;-87
2021/10/28 03:08:18;;;;;;;0.00;0.00;;;;;;;;;;4978454;28;20019;-87
2021/10/28 03:10:44;;;;;;;0.03;0.03;;;;;;;;;;4978071;28;20057;-87
2021/10/28 03:13:10;;;;;;;0.00;0.00;;;;;;;;;;4978000;28;20094;-87
2021/10/28 03:15:37;;;;;;;0.00;0.00;;;;;;;;;;4978136;28;20054;-88
2021/10/28 03:19:05;;;;;;;0.00;0.00;;;;;;;;;;4988427;28;20537;-87
2021/10/28 03:26:23;;;;;;;0.98;0.55;;;;;;;;;;4997315;28;20125;-88
2021/10/28 03:28:48;;;;;;;0.00;0.00;;;;;;;;;;4997106;28;20113;-87
2021/10/28 03:31:13;;;;;;;0.00;0.00;;;;;;;;;;4996525;28;20084;-87
2021/10/28 03:33:41;;;;;;;0.20;0.20;;;;;;;;;;4990904;28;20113;-87
2021/10/28 03:36:12;;;;;;;0.32;0.32;;;;;;;;;;4993956;28;20030;-87
2021/10/28 03:38:58;;;;;;;0.35;0.35;;;;;;;;;;4997028;28;20034;-87
2021/10/28 03:44:21;;;;;;;0.00;0.00;;;;;;;;;;4997016;28;20524;-87
2021/10/28 04:00:54;;;;;;;0.50;0.50;;;;;;;;;;4996594;28;20133;-87
2021/10/28 04:19:17;;;;;;;0.00;0.00;;;;;;;;;;4995976;28;20497;-86
2021/10/28 04:29:19;;;;;;;0.30;0.30;;;;;;;;;;4995771;28;20525;-86
2021/10/28 04:31:45;;;;;;;0.28;0.28;;;;;;;;;;4984108;28;20038;-87
2021/10/28 04:34:11;;;;;;;0.93;0.75;;;;;;;;;;4970454;28;20054;-86
2021/10/28 04:36:37;;;;;;;0.52;0.35;;;;;;;;;;4976527;28;20073;-87
2021/10/28 04:39:04;;;;;;;0.10;0.10;;;;;;;;;;4976322;28;20077;-87
2021/10/28 04:41:29;;;;;;;0.38;0.30;;;;;;;;;;4976388;28;20468;-86
2021/10/28 04:43:55;;;;;;;0.08;0.08;;;;;;;;;;4973114;28;20031;-87
2021/10/28 04:46:20;;;;;;;0.22;0.22;;;;;;;;;;4976392;28;20077;-87
2021/10/28 04:48:46;;;;;;;2.30;0.90;;;;;;;;;;4976330;28;20026;-87
2021/10/28 04:51:12;;;;;;;3.55;2.13;;;;;;;;;;4976280;28;20033;-87
2021/10/28 04:53:37;;;;;;;12.93;1.33;;;;;;;;;;4976102;28;20046;-87
2021/10/28 04:56:02;;;;;;;0.00;0.00;;;;;;;;;;4970003;28;20459;-87
2021/10/28 04:58:28;;;;;;;0.73;0.73;;;;;;;;;;4972772;28;20022;-87
2021/10/28 05:00:53;;;;;;;0.32;0.32;;;;;;;;;;4975954;28;20458;-87
2021/10/28 05:03:18;;;;;;;0.00;0.00;;;;;;;;;;4972750;28;20027;-87
2021/10/28 05:05:44;;;;;;;0.00;0.00;;;;;;;;;;4976035;28;20146;-87
2021/10/28 05:08:10;;;;;;;0.28;0.28;;;;;;;;;;4975929;28;20035;-87
2021/10/28 05:10:35;;;;;;;0.13;0.10;;;;;;;;;;4976013;28;20047;-86
2021/10/28 05:13:00;;;;;;;0.00;0.00;;;;;;;;;;4976180;28;20023;-87
2021/10/28 05:15:26;;;;;;;0.22;0.22;;;;;;;;;;4969994;28;20035;-87
2021/10/28 05:17:51;;;;;;;1.65;0.28;;;;;;;;;;4975583;28;20515;-87
2021/10/28 05:20:16;;;;;;;0.00;0.00;;;;;;;;;;4975204;28;20491;-87
2021/10/28 05:22:41;;;;;;;0.00;0.00;;;;;;;;;;4975356;28;20038;-87
2021/10/28 05:25:07;;;;;;;0.00;0.00;;;;;;;;;;4972217;28;20065;-87
2021/10/28 05:27:32;;;;;;;0.32;0.30;;;;;;;;;;4970367;28;20459;-87
2021/10/28 05:29:58;;;;;;;0.10;0.10;;;;;;;;;;4975548;28;20038;-86
2021/10/28 05:32:23;;;;;;;0.00;0.00;;;;;;;;;;4975576;28;20023;-87
2021/10/28 05:34:48;;;;;;;0.05;0.05;;;;;;;;;;4972266;28;20029;-87
2021/10/28 05:37:14;;;;;;;0.00;0.00;;;;;;;;;;4975360;28;20498;-87
2021/10/28 05:39:40;;;;;;;1.02;0.88;;;;;;;;;;4975243;28;20031;-87
2021/10/28 05:42:05;;;;;;;0.85;0.85;;;;;;;;;;4975233;28;20038;-87
2021/10/28 05:44:30;;;;;;;0.10;0.10;;;;;;;;;;4974981;28;20113;-87
2021/10/28 05:46:56;;;;;;;0.00;0.00;;;;;;;;;;4974888;28;20019;-86
2021/10/28 05:49:21;;;;;;;0.00;0.00;;;;;;;;;;4975053;28;20030;-86
2021/10/28 05:51:47;;;;;;;0.10;0.10;;;;;;;;;;4974965;28;20037;-87
2021/10/28 05:54:13;;;;;;;0.10;0.10;;;;;;;;;;4953269;28;20019;-87
2021/10/28 05:56:39;;;;;;;0.38;0.38;;;;;;;;;;4973469;28;20037;-87
2021/10/28 05:59:04;;;;;;;9.95;1.38;;;;;;;;;;4974860;28;20380;-87
2021/10/28 06:01:29;;;;;;;0.55;0.55;;;;;;;;;;4957592;28;20035;-87
2021/10/28 06:03:55;;;;;;;0.57;0.57;;;;;;;;;;4975044;28;20066;-86
2021/10/28 06:06:20;;;;;;;0.30;0.30;;;;;;;;;;4974856;28;20118;-87
2021/10/28 06:08:45;;;;;;;0.22;0.22;;;;;;;;;;4974946;28;20481;-87
2021/10/28 06:11:11;;;;;;;2.45;1.08;;;;;;;;;;4974659;28;20470;-87
2021/10/28 06:13:43;;;;;;;1.13;0.85;;;;;;;;;;4974964;28;20109;-87
2021/10/28 06:16:09;;;;;;;0.85;0.75;;;;;;;;;;4974583;28;20530;-87
2021/10/28 06:18:37;;;;;;;1.20;1.10;;;;;;;;;;4974981;28;20027;-87
2021/10/28 06:21:03;;;;;;;0.50;0.43;;;;;;;;;;4974748;28;20047;-87
2021/10/28 06:23:28;;;;;;;0.40;0.40;;;;;;;;;;4974898;28;20037;-87
2021/10/28 06:25:54;;;;;;;0.47;0.47;;;;;;;;;;4974879;28;20511;-87
2021/10/28 06:28:19;;;;;;;2.58;1.55;;;;;;;;;;4974741;28;20045;-87
2021/10/28 06:30:44;;;;;;;0.10;0.10;;;;;;;;;;4969816;28;20027;-86
2021/10/28 06:33:14;;;;;;;0.00;0.00;;;;;;;;;;4974993;28;20070;-87
2021/10/28 06:35:42;;;;;;;0.00;0.00;;;;;;;;;;4974749;28;20069;-87
2021/10/28 06:38:07;;;;;;;1.98;1.08;;;;;;;;;;4974701;28;20110;-87
2021/10/28 06:40:33;;;;;;;0.00;0.00;;;;;;;;;;4974731;28;20137;-87
2021/10/28 06:42:58;;;;;;;0.13;0.13;;;;;;;;;;4970901;28;20114;-87
2021/10/28 06:45:24;;;;;;;0.00;0.00;;;;;;;;;;4953057;28;20026;-86
2021/10/28 06:47:49;;;;;;;0.43;0.40;;;;;;;;;;4955283;28;20027;-87
2021/10/28 06:50:16;;;;;;;0.20;0.20;;;;;;;;;;4950255;28;20520;-87
2021/10/28 06:55:27;;;;;;;6.22;0.80;;;;;;;;;;4954919;29;20035;-87
2021/10/28 07:03:22;;;;;;;0.28;0.28;;;;;;;;;;4955032;28;20510;-85
2021/10/28 07:05:48;;;;;;;0.28;0.28;;;;;;;;;;4955131;28;20019;-87
2021/10/28 07:08:14;;;;;;;0.00;0.00;;;;;;;;;;4955023;29;20357;-87
2021/10/28 07:10:40;;;;;;;9.45;0.55;;;;;;;;;;4970837;28;20093;-87
2021/10/28 07:13:11;;;;;;;0.10;0.10;;;;;;;;;;4970649;28;20023;-87
2021/10/28 07:15:41;;;;;;;0.10;0.10;;;;;;;;;;4974455;28;20031;-87
2021/10/28 07:31:05;;;;;;;0.00;0.00;;;;;;;;;;4974207;28;20023;-86
2021/10/28 07:58:33;;;;;;;0.20;0.20;;;;;;;;;;4949245;28;20042;-87
2021/10/28 08:30:02;;;;;;;0.10;0.10;;;;;;;;;;4994269;28;20045;-87
2021/10/28 08:32:27;;;;;;;0.13;0.10;;;;;;;;;;4977491;28;20487;-88
2021/10/28 08:34:53;;;;;;;0.65;0.55;;;;;;;;;;4933987;29;20396;-87
2021/10/28 08:37:20;;;;;;;1.05;0.95;;;;;;;;;;4934461;29;20039;-87
2021/10/28 08:39:46;;;;;;;0.10;0.10;;;;;;;;;;4929208;29;20043;-87
2021/10/28 08:42:13;;;;;;;1.05;0.95;;;;;;;;;;4934490;29;20105;-87
2021/10/28 08:44:44;;;;;;;0.10;0.10;;;;;;;;;;4934145;29;20040;-86
2021/10/28 08:47:11;;;;;;;0.00;0.00;;;;;;;;;;4934360;29;20036;-88
2021/10/28 08:49:42;;;;;;;0.00;0.00;;;;;;;;;;4934033;29;20500;-88
2021/10/28 08:54:58;;;;;;;0.03;0.03;;;;;;;;;;4932996;29;20118;-87
2021/10/28 09:25:28;;;;;;;0.00;0.00;;;;;;;;;;4993656;28;20084;-86
2021/10/28 09:30:33;;;;;;;0.10;0.10;;;;;;;;;;4993280;28;20027;-86
2021/10/28 09:33:22;;;;;;;0.10;0.10;;;;;;;;;;4994590;28;20042;-87
2021/10/28 09:36:13;;;;;;;0.17;0.17;;;;;;;;;;4994312;28;20057;-87
2021/10/28 09:44:31;;;;;;;0.00;0.00;;;;;;;;;;4993875;28;20045;-87
2021/10/28 09:47:05;;;;;;;0.57;0.57;;;;;;;;;;4993866;28;20030;-87
2021/10/28 09:49:59;;;;;;;0.00;0.00;;;;;;;;;;4993135;28;20045;-87
2021/10/28 09:52:31;;;;;;;0.00;0.00;;;;;;;;;;4993395;28;20023;-87
2021/10/28 09:57:47;;;;;;;0.65;0.65;;;;;;;;;;4975374;28;20069;-87
2021/10/28 09:58:01;;;;;;;0.20;0.20;;;;;;;;;;4993051;28;20037;-88
2021/10/28 10:00:34;;;;;;;0.00;0.00;;;;;;;;;;4993244;28;20043;-88
2021/10/28 10:03:07;;;;;;;0.00;0.00;;;;;;;;;;4976168;28;20471;-88
2021/10/28 10:05:33;;;;;;;0.00;0.00;;;;;;;;;;4989901;28;20485;-88
2021/10/28 10:07:59;;;;;;;0.17;0.17;;;;;;;;;;4988514;28;20026;-88
2021/10/28 10:10:25;;;;;;;0.00;0.00;;;;;;;;;;4989067;28;20525;-88
2021/10/28 10:12:51;;;;;;;0.00;0.00;;;;;;;;;;4990023;28;20065;-88
2021/10/28 10:15:17;;;;;;;0.45;0.45;;;;;;;;;;4992709;28;20077;-88
2021/10/28 10:18:05;;;;;;;0.10;0.10;;;;;;;;;;4992955;28;20027;-88
2021/10/28 10:20:41;;;;;;;0.00;0.00;;;;;;;;;;4992565;28;20046;-88
2021/10/28 10:25:53;;;;;;;;;;;;;;;;;;4993027;28;20121;-87
2021/10/28 10:28:51;;;;;;;0.00;0.00;;;;;;;;;;4993169;28;19916;-88
2021/10/28 11:03:56;;;;;;;0.22;0.20;;;;;;;;;;4973600;28;20085;-88
2021/10/28 11:31:22;;;;;;;0.22;0.22;;;;;;;;;;5008697;28;20042;-88
2021/10/28 12:50:50;;;;;;;0.00;0.00;;;;;;;;;;4980947;28;20027;-87
2021/10/28 12:53:50;;;;;;;0.17;0.17;;;;;;;;;;4981042;28;20031;-87
2021/10/28 13:07:14;;;;;;;8.88;0.40;;;;;;;;;;4976823;28;20030;-86
2021/10/28 14:33:54;;;;;;;0.10;0.10;;;;;;;;;;4976920;28;20026;-88
2021/10/28 15:02:45;;;;;;;0.10;0.10;;;;;;;;;;4981826;28;20051;-86
2021/10/28 15:35:22;;;;;;;0.22;0.22;;;;;;;;;;4943209;28;20042;-87
2021/10/28 15:37:57;;;;;;;0.22;0.22;;;;;;;;;;4978639;28;20034;-86
2021/10/28 16:23:35;;;;;;;0.43;0.38;;;;;;;;;;4980257;28;20054;-87
2021/10/28 16:26:02;;;;;;;0.25;0.25;;;;;;;;;;4977449;28;20034;-88
2021/10/28 16:28:28;;;;;;;0.45;0.17;;;;;;;;;;4967509;28;20074;-87
2021/10/28 16:30:54;;;;;;;0.25;0.25;;;;;;;;;;4972709;28;20034;-88
2021/10/28 16:33:19;;;;;;;1.13;1.02;;;;;;;;;;4970719;28;20027;-88
2021/10/28 16:35:45;;;;;;;0.93;0.85;;;;;;;;;;4987764;28;20030;-87
2021/10/28 16:38:10;;;;;;;0.13;0.13;;;;;;;;;;4992060;28;20423;-88
2021/10/28 16:40:36;;;;;;;0.55;0.55;;;;;;;;;;4987852;28;20026;-87
2021/10/28 16:43:01;;;;;;;1.13;1.08;;;;;;;;;;4992409;28;20041;-87
2021/10/28 16:45:26;;;;;;;0.68;0.68;;;;;;;;;;4992462;28;20058;-86
2021/10/28 16:47:52;;;;;;;0.43;0.43;;;;;;;;;;4993071;28;20033;-88
2021/10/28 16:50:17;;;;;;;0.10;0.10;;;;;;;;;;4993899;28;20403;-87
2021/10/28 16:52:42;;;;;;;1.60;1.10;;;;;;;;;;4987169;28;20456;-87
2021/10/28 16:55:08;;;;;;;0.13;0.13;;;;;;;;;;4973209;28;20102;-87
2021/10/28 16:57:34;;;;;;;0.43;0.43;;;;;;;;;;4969086;28;20165;-87
2021/10/28 16:59:59;;;;;;;1.17;0.63;;;;;;;;;;4986063;28;20026;-88
2021/10/28 17:02:24;;;;;;;0.20;0.20;;;;;;;;;;4979486;28;20045;-88
2021/10/28 17:04:50;;;;;;;0.93;0.88;;;;;;;;;;4986356;28;20536;-88
2021/10/28 17:07:15;;;;;;;0.45;0.45;;;;;;;;;;4989106;28;20023;-88
2021/10/28 17:09:40;;;;;;;0.00;0.00;;;;;;;;;;4986827;28;20046;-89
2021/10/28 17:12:06;;;;;;;0.20;0.20;;;;;;;;;;4981492;28;20113;-89
2021/10/28 17:14:31;;;;;;;0.77;0.70;;;;;;;;;;4992721;28;20018;-90
2021/10/28 17:16:56;;;;;;;1.75;0.95;;;;;;;;;;4976233;28;20019;-89
2021/10/28 17:19:22;;;;;;;0.57;0.57;;;;;;;;;;4972809;28;20042;-88
2021/10/28 17:21:49;;;;;;;0.10;0.10;;;;;;;;;;4972580;28;20038;-88
2021/10/28 17:25:18;;;;;;;0.30;0.30;;;;;;;;;;4972740;28;20027;-89
2021/10/28 17:27:09;;;;;;;0.15;0.15;;;;;;;;;;4976314;28;20046;-88
2021/10/28 17:29:34;;;;;;;0.00;0.00;;;;;;;;;;4987587;28;20366;-88
2021/10/28 17:31:59;;;;;;;0.00;0.00;;;;;;;;;;4963090;28;20030;-88
2021/10/28 17:34:25;;;;;;;3.05;1.20;;;;;;;;;;4991403;28;20810;-88
2021/10/28 17:36:57;;;;;;;;;;;;;;;;;;5108288;27;20729;-89
2021/10/28 17:39:23;;;;;;;3.75;0.63;;;;;;;;;;5106343;28;19915;-88
2021/10/28 17:41:49;;;;;;;1.20;1.10;;;;;;;;;;5104247;28;20294;-88
2021/10/28 17:44:15;;;;;;;0.55;0.32;;;;;;;;;;5106567;28;20020;-89
2021/10/28 17:46:40;;;;;;;0.50;0.50;;;;;;;;;;5108051;28;20032;-88
2021/10/28 17:49:05;;;;;;;0.77;0.57;;;;;;;;;;5107849;28;20028;-88
2021/10/28 17:51:31;;;;;;;2.25;1.00;;;;;;;;;;5109083;28;20024;-87
2021/10/28 17:53:56;;;;;;;0.45;0.45;;;;;;;;;;5110562;28;20437;-88
2021/10/28 17:56:22;;;;;;;1.45;0.95;;;;;;;;;;5110936;28;20035;-87
2021/10/28 17:58:48;;;;;;;0.52;0.35;;;;;;;;;;5110999;28;20694;-88
2021/10/28 18:01:15;;;;;;;0.35;0.35;;;;;;;;;;5110769;28;20353;-88
2021/10/28 18:03:41;;;;;;;0.77;0.77;;;;;;;;;;5110944;28;20028;-88
2021/10/28 18:06:06;;;;;;;0.75;0.75;;;;;;;;;;5110568;28;20526;-88
2021/10/28 18:08:31;;;;;;;1.77;1.25;;;;;;;;;;5110920;28;20031;-88
2021/10/28 18:10:57;;;;;;;4.40;1.83;;;;;;;;;;5109504;28;20122;-87
2021/10/28 18:13:22;;;;;;;1.25;1.10;;;;;;;;;;5110716;28;20165;-87
2021/10/28 18:15:48;;;;;;;1.58;1.48;;;;;;;;;;5110164;28;20501;-88
2021/10/28 18:18:13;;;;;;;1.80;1.52;;;;;;;;;;5110964;28;20031;-88
2021/10/28 18:20:39;;;;;;;0.22;0.22;;;;;;;;;;5110514;28;20020;-88
2021/10/28 18:23:05;;;;;;;7.15;1.30;;;;;;;;;;5110586;28;20058;-88
2021/10/28 18:25:30;;;;;;;0.20;0.20;;;;;;;;;;5110314;28;20028;-88
2021/10/28 18:27:56;;;;;;;0.25;0.25;;;;;;;;;;5110274;28;20024;-88
2021/10/28 18:30:22;;;;;;;0.68;0.68;;;;;;;;;;5109997;28;20477;-87
2021/10/28 18:32:47;;;;;;;0.25;0.25;;;;;;;;;;5110240;28;20059;-88
2021/10/28 18:35:13;;;;;;;2.50;1.10;;;;;;;;;;5110251;28;20082;-88
2021/10/28 18:37:40;;;;;;;0.32;0.30;;;;;;;;;;5110264;28;20525;-87
2021/10/28 18:40:06;;;;;;;1.17;1.08;;;;;;;;;;5109989;28;20028;-88
2021/10/28 18:42:31;;;;;;;0.60;0.60;;;;;;;;;;5110275;28;20020;-88
2021/10/28 18:44:56;;;;;;;0.28;0.28;;;;;;;;;;5110259;28;20032;-88
2021/10/28 18:47:21;;;;;;;1.02;0.68;;;;;;;;;;5102225;28;20028;-88
2021/10/28 18:49:51;;;;;;;0.90;0.90;;;;;;;;;;5096643;28;20016;-88
2021/10/28 18:52:17;;;;;;;0.90;0.90;;;;;;;;;;5096296;28;20400;-88
2021/10/28 18:54:43;;;;;;;0.45;0.45;;;;;;;;;;5096359;28;20028;-88
2021/10/28 18:57:08;;;;;;;0.20;0.20;;;;;;;;;;5096518;28;20059;-87
2021/10/28 18:59:33;;;;;;;4.07;1.23;;;;;;;;;;5096127;28;20035;-87
2021/10/28 19:02:00;;;;;;;1.25;1.17;;;;;;;;;;5096297;28;20496;-86
2021/10/28 19:04:25;;;;;;;0.20;0.20;;;;;;;;;;5096250;28;20024;-85
2021/10/28 19:06:51;;;;;;;0.38;0.38;;;;;;;;;;5096307;28;20070;-86
2021/10/28 19:09:17;;;;;;;0.30;0.30;;;;;;;;;;5096206;28;20032;-85
2021/10/28 19:11:42;;;;;;;5.25;1.45;;;;;;;;;;5096065;28;20085;-85
2021/10/28 19:14:08;;;;;;;1.13;1.02;;;;;;;;;;5095763;28;20472;-84
2021/10/28 19:16:33;;;;;;;0.43;0.43;;;;;;;;;;5095940;28;20047;-86
2021/10/28 19:18:58;;;;;;;1.35;0.63;;;;;;;;;;5096057;28;20418;-85
2021/10/28 19:21:24;;;;;;;0.10;0.10;;;;;;;;;;5096009;28;20059;-85
2021/10/28 19:23:50;;;;;;;1.63;1.25;;;;;;;;;;5094567;28;20070;-86
2021/10/28 19:26:15;;;;;;;0.43;0.43;;;;;;;;;;5096141;28;20024;-86
2021/10/28 19:28:42;;;;;;;1.55;0.95;;;;;;;;;;5095847;28;20028;-86
2021/10/28 19:31:17;;;;;;;0.10;0.10;;;;;;;;;;5094559;28;20441;-86
2021/10/28 19:33:45;;;;;;;0.28;0.28;;;;;;;;;;5095776;28;20110;-86
2021/10/28 19:36:16;;;;;;;0.30;0.30;;;;;;;;;;5095787;28;20464;-87
2021/10/28 19:46:53;;;;;;;10.73;2.72;;;;;;;;;;5086935;28;20871;-87
2021/10/28 19:49:20;;;;;;;0.70;0.43;;;;;;;;;;5095019;28;20479;-87
2021/10/28 19:51:45;;;;;;;0.55;0.55;;;;;;;;;;5094730;28;20038;-87
2021/10/28 19:54:12;;;;;;;5.65;1.73;;;;;;;;;;5094486;28;20020;-87
2021/10/28 19:56:39;;;;;;;0.20;0.20;;;;;;;;;;5093679;28;20044;-86
2021/10/28 19:59:06;;;;;;;1.40;0.90;;;;;;;;;;5094093;28;20102;-86
2021/10/28 20:01:57;;;;;;;0.70;0.43;;;;;;;;;;5086057;28;21544;-87
2021/10/28 20:20:10;;;;;;;2.40;0.25;;;;;;;;;;5092863;28;20514;-87
2021/10/28 20:22:37;;;;;;;0.35;0.35;;;;;;;;;;5093310;28;20019;-88
2021/10/28 20:25:04;;;;;;;2.78;1.30;;;;;;;;;;5092799;28;20035;-87
2021/10/28 20:27:29;;;;;;;0.40;0.35;;;;;;;;;;5092791;28;20012;-87
2021/10/28 20:29:55;;;;;;;0.47;0.47;;;;;;;;;;5092935;28;20035;-87
2021/10/28 20:32:21;;;;;;;0.38;0.38;;;;;;;;;;5077528;28;20033;-87
2021/10/28 20:37:30;;;;;;;0.47;0.45;;;;;;;;;;5072514;28;20024;-87
2021/10/28 20:39:55;;;;;;;0.00;0.00;;;;;;;;;;5071834;28;20037;-87
2021/10/28 20:42:21;;;;;;;0.00;0.00;;;;;;;;;;5072796;28;20021;-86
2021/10/28 20:44:48;;;;;;;0.20;0.20;;;;;;;;;;5071939;28;20055;-88
2021/10/28 20:47:13;;;;;;;0.00;0.00;;;;;;;;;;5071944;28;20039;-84
2021/10/28 20:49:39;;;;;;;0.00;0.00;;;;;;;;;;5071537;28;20013;-85
2021/10/28 20:52:04;;;;;;;0.55;0.38;;;;;;;;;;5072736;28;20032;-85
2021/10/28 20:54:30;;;;;;;0.05;0.05;;;;;;;;;;5072123;28;20224;-85
2021/10/28 20:57:00;;;;;;;0.00;0.00;;;;;;;;;;5091822;28;20040;-85
2021/10/28 20:59:25;;;;;;;5.03;2.33;;;;;;;;;;5090920;28;20047;-86
2021/10/28 21:01:52;;;;;;;2.70;0.35;;;;;;;;;;5084370;28;20024;-86
2021/10/28 21:04:17;;;;;;;0.08;0.08;;;;;;;;;;5079312;28;20070;-86
2021/10/28 21:06:43;;;;;;;0.32;0.32;;;;;;;;;;5091277;28;20032;-86
2021/10/28 21:09:08;;;;;;;0.15;0.15;;;;;;;;;;5091871;28;20059;-86
2021/10/28 21:11:37;;;;;;;0.00;0.00;;;;;;;;;;5091984;28;20067;-85
2021/10/28 21:14:03;;;;;;;0.00;0.00;;;;;;;;;;5091943;28;20095;-87
2021/10/28 21:16:29;;;;;;;0.10;0.10;;;;;;;;;;5091342;28;20433;-87
2021/10/28 21:18:54;;;;;;;0.52;0.52;;;;;;;;;;5092171;28;20031;-86
2021/10/28 21:21:19;;;;;;;2.75;1.17;;;;;;;;;;5092366;28;20432;-87
2021/10/28 21:23:45;;;;;;;3.30;0.75;;;;;;;;;;5092118;28;20028;-86
2021/10/28 21:26:11;;;;;;;0.10;0.10;;;;;;;;;;5092414;28;20024;-86
2021/10/28 21:28:36;;;;;;;0.43;0.43;;;;;;;;;;5092017;28;20020;-85
2021/10/28 21:31:02;;;;;;;0.52;0.50;;;;;;;;;;5091959;28;20032;-86
2021/10/28 21:33:27;;;;;;;0.43;0.43;;;;;;;;;;5091807;28;20016;-86
2021/10/28 21:35:52;;;;;;;0.05;0.05;;;;;;;;;;5090249;28;20059;-87
2021/10/28 21:38:18;;;;;;;0.57;0.57;;;;;;;;;;5091970;28;20472;-86
2021/10/28 21:40:43;;;;;;;0.40;0.40;;;;;;;;;;5090298;28;20029;-90
2021/10/28 21:43:10;;;;;;;5.57;0.68;;;;;;;;;;5089395;28;20024;-86
2021/10/28 21:45:35;;;;;;;1.55;0.80;;;;;;;;;;5093598;28;20105;-85
2021/10/28 21:48:01;;;;;;;0.00;0.00;;;;;;;;;;5093769;28;20051;-86
2021/10/28 21:50:27;;;;;;;4.47;1.27;;;;;;;;;;5093276;28;20111;-85
2021/10/28 21:52:58;;;;;;;0.15;0.15;;;;;;;;;;5093605;28;20442;-86
2021/10/28 21:55:32;;;;;;;0.13;0.13;;;;;;;;;;5093409;28;20032;-86
2021/10/28 22:24:39;;;;;;;0.03;0.03;;;;;;;;;;5096857;28;20078;-84
2021/10/28 22:27:04;;;;;;;0.35;0.35;;;;;;;;;;5096990;28;20030;-85
2021/10/28 22:29:30;;;;;;;0.50;0.50;;;;;;;;;;5097063;28;20032;-85
2021/10/28 22:31:55;;;;;;;0.10;0.10;;;;;;;;;;5096867;28;20024;-85
2021/10/28 22:34:21;;;;;;;0.20;0.20;;;;;;;;;;5096961;28;20398;-85
2021/10/28 22:36:51;;;;;;;0.10;0.10;;;;;;;;;;5096459;28;20052;-84
2021/10/28 22:39:21;;;;;;;0.00;0.00;;;;;;;;;;5096806;28;20024;-85
2021/10/28 22:41:47;;;;;;;5.53;0.75;;;;;;;;;;5096789;28;20012;-85
2021/10/28 22:44:12;;;;;;;0.03;0.03;;;;;;;;;;5096738;28;20491;-85
2021/10/28 22:46:37;;;;;;;0.43;0.43;;;;;;;;;;5096651;28;20364;-85
2021/10/28 22:49:03;;;;;;;0.00;0.00;;;;;;;;;;5095380;28;20097;-85
2021/10/28 22:51:29;;;;;;;0.00;0.00;;;;;;;;;;5096597;28;20032;-85
2021/10/28 22:53:54;;;;;;;0.25;0.25;;;;;;;;;;5096476;28;20023;-85
2021/10/28 22:56:20;;;;;;;0.13;0.13;;;;;;;;;;5096497;28;20050;-85
2021/10/28 22:58:56;;;;;;;0.60;0.60;;;;;;;;;;5095241;28;20380;-85
2021/10/28 23:01:32;;;;;;;0.10;0.10;;;;;;;;;;5096388;28;20028;-85
2021/10/28 23:07:29;;;;;;;0.00;0.00;;;;;;;;;;5096033;28;20062;-85
2021/10/28 23:22:53;;;;;;;0.08;0.08;;;;;;;;;;5096055;28;20081;-86
2021/10/28 23:25:20;;;;;;;0.25;0.25;;;;;;;;;;5096025;28;20035;-86
2021/10/28 23:27:45;;;;;;;1.33;1.23;;;;;;;;;;5095900;28;20035;-86
2021/10/28 23:30:10;;;;;;;0.10;0.10;;;;;;;;;;5095876;28;20020;-86
2021/10/28 23:32:36;;;;;;;0.15;0.15;;;;;;;;;;5095679;28;20032;-86
2021/10/28 23:35:01;;;;;;;0.10;0.10;;;;;;;;;;5095451;28;20044;-86
2021/10/28 23:37:27;;;;;;;0.00;0.00;;;;;;;;;;5095900;28;20024;-87
2021/10/28 23:39:52;;;;;;;0.55;0.55;;;;;;;;;;5095918;28;20036;-86
2021/10/28 23:42:17;;;;;;;3.72;1.02;;;;;;;;;;5095360;28;20055;-85
2021/10/28 23:44:43;;;;;;;0.77;0.50;;;;;;;;;;5095685;28;20043;-85
2021/10/28 23:47:08;;;;;;;0.00;0.00;;;;;;;;;;5095492;28;20089;-85
2021/10/28 23:49:33;;;;;;;0.00;0.00;;;;;;;;;;5095768;28;20028;-84
2021/10/28 23:51:58;;;;;;;0.60;0.60;;;;;;;;;;5095519;28;20024;-85
2021/10/28 23:54:24;;;;;;;0.00;0.00;;;;;;;;;;5095417;28;20046;-85
2021/10/28 23:56:49;;;;;;;0.10;0.10;;;;;;;;;;5095172;28;20042;-86
2021/10/28 23:59:14;;;;;;;1.30;0.90;;;;;;;;;;5095332;28;20024;-85
